createdAt,value
2023-02-19T00:01:48.901Z,5.34
2023-02-19T00:04:19.169Z,5.33
2023-02-19T00:06:48.352Z,5.34
2023-02-19T00:09:17.459Z,5.34
2023-02-19T00:11:45.035Z,5.30
2023-02-19T00:14:19.714Z,5.27
2023-02-19T00:16:47.349Z,5.27
2023-02-19T00:19:17.805Z,5.27
2023-02-19T00:21:45.291Z,5.28
2023-02-19T00:24:14.045Z,5.30
2023-02-19T00:26:43.228Z,5.32
2023-02-19T00:29:15.446Z,5.29
2023-02-19T00:31:43.142Z,5.28
2023-02-19T00:34:12.384Z,5.26
2023-02-19T00:36:41.593Z,5.23
2023-02-19T00:39:09.665Z,5.20
2023-02-19T00:41:36.854Z,5.18
2023-02-19T00:44:08.305Z,5.16
2023-02-19T00:46:42.493Z,5.17
2023-02-19T00:49:17.334Z,5.18
2023-02-19T00:51:45.070Z,5.20
2023-02-19T00:54:13.397Z,5.21
2023-02-19T00:56:40.893Z,5.19
2023-02-19T00:59:08.357Z,5.18
2023-02-19T01:01:35.717Z,5.17
2023-02-19T01:04:04.831Z,5.19
2023-02-19T01:06:35.128Z,5.19
2023-02-19T01:09:03.110Z,5.17
2023-02-19T01:11:30.450Z,5.16
2023-02-19T01:13:59.534Z,5.14
2023-02-19T01:16:28.064Z,5.14
2023-02-19T01:18:56.873Z,5.10
2023-02-19T01:21:26.423Z,5.10
2023-02-19T01:23:54.549Z,5.12
2023-02-19T01:26:27.767Z,5.14
2023-02-19T01:28:55.672Z,5.14
2023-02-19T01:31:25.369Z,5.14
2023-02-19T01:33:59.509Z,5.14
2023-02-19T01:36:27.285Z,5.13
2023-02-19T01:38:54.568Z,5.06
2023-02-19T01:41:26.050Z,5.01
2023-02-19T01:44:08.888Z,4.98
2023-02-19T01:46:38.163Z,4.98
2023-02-19T01:49:13.055Z,4.97
2023-02-19T01:51:45.646Z,4.94
2023-02-19T01:54:14.628Z,4.93
2023-02-19T01:56:44.649Z,4.92
2023-02-19T01:59:12.686Z,4.93
2023-02-19T02:04:28.123Z,4.97
2023-02-19T02:07:01.425Z,4.94
2023-02-19T02:09:49.754Z,4.93
2023-02-19T02:12:16.962Z,4.90
2023-02-19T02:14:48.736Z,4.90
2023-02-19T02:17:26.346Z,4.91
2023-02-19T02:20:03.245Z,4.91
2023-02-19T02:22:36.879Z,4.92
2023-02-19T02:25:22.456Z,4.94
2023-02-19T02:28:41.437Z,4.93
2023-02-19T02:31:20.273Z,4.89
2023-02-19T02:33:50.267Z,4.88
2023-02-19T02:36:25.150Z,4.87
2023-02-19T02:38:54.591Z,4.86
2023-02-19T02:41:22.130Z,4.83
2023-02-19T02:43:49.278Z,4.85
2023-02-19T02:46:23.173Z,4.87
2023-02-19T02:48:55.799Z,4.86
2023-02-19T02:51:32.772Z,4.90
2023-02-19T02:54:30.714Z,4.92
2023-02-19T02:57:00.285Z,4.96
2023-02-19T02:59:32.634Z,4.97
2023-02-19T03:02:14.838Z,4.96
2023-02-19T03:05:13.370Z,4.95
2023-02-19T03:08:01.251Z,4.92
2023-02-19T03:10:51.978Z,4.92
2023-02-19T03:13:53.028Z,4.93
2023-02-19T03:16:49.315Z,4.92
2023-02-19T03:19:20.009Z,4.94
2023-02-19T03:21:56.617Z,4.95
2023-02-19T03:24:48.961Z,4.94
2023-02-19T03:27:19.827Z,4.95
2023-02-19T03:29:50.247Z,4.97
2023-02-19T03:32:29.778Z,5.01
2023-02-19T03:35:12.084Z,5.04
2023-02-19T03:37:47.373Z,5.07
2023-02-19T03:40:15.715Z,5.09
2023-02-19T03:42:59.823Z,5.09
2023-02-19T03:45:38.332Z,5.12
2023-02-19T03:48:39.108Z,5.11
2023-02-19T03:51:25.398Z,5.12
2023-02-19T03:54:24.240Z,5.10
2023-02-19T03:57:00.744Z,5.10
2023-02-19T03:59:40.697Z,5.11
2023-02-19T04:02:17.687Z,5.11
2023-02-19T04:05:01.775Z,5.13
2023-02-19T04:07:31.775Z,5.16
2023-02-19T04:09:59.517Z,5.17
2023-02-19T04:12:28.107Z,5.17
2023-02-19T04:15:07.086Z,5.18
2023-02-19T04:17:40.407Z,5.16
2023-02-19T04:20:10.714Z,5.16
2023-02-19T04:22:39.730Z,5.18
2023-02-19T04:25:08.242Z,5.17
2023-02-19T04:27:42.122Z,5.18
2023-02-19T04:30:12.417Z,5.18
2023-02-19T04:32:39.697Z,5.16
2023-02-19T04:35:07.639Z,5.14
2023-02-19T04:37:34.906Z,5.13
2023-02-19T04:40:02.084Z,5.15
2023-02-19T04:42:29.818Z,5.13
2023-02-19T04:44:57.059Z,5.14
2023-02-19T04:47:24.852Z,5.14
2023-02-19T04:49:52.244Z,5.13
2023-02-19T04:52:19.351Z,5.13
2023-02-19T04:54:46.537Z,5.14
2023-02-19T04:57:14.313Z,5.14
2023-02-19T04:59:41.528Z,5.12
2023-02-19T05:02:08.748Z,5.09
2023-02-19T05:04:36.090Z,5.06
2023-02-19T05:07:03.343Z,5.03
2023-02-19T05:09:30.568Z,5.02
2023-02-19T05:11:58.253Z,5.03
2023-02-19T05:14:25.558Z,5.04
2023-02-19T05:16:52.826Z,5.03
2023-02-19T05:19:20.628Z,5.03
2023-02-19T05:21:47.879Z,5.05
2023-02-19T05:24:15.109Z,5.07
2023-02-19T05:26:45.362Z,5.08
2023-02-19T05:29:12.886Z,5.10
2023-02-19T05:31:40.221Z,5.08
2023-02-19T05:34:08.044Z,5.04
2023-02-19T05:36:35.128Z,5.03
2023-02-19T05:39:02.326Z,5.03
2023-02-19T05:41:30.861Z,5.04
2023-02-19T05:43:58.703Z,5.05
2023-02-19T05:46:30.104Z,5.06
2023-02-19T05:48:58.682Z,5.07
2023-02-19T05:51:27.672Z,5.08
2023-02-19T05:53:57.744Z,5.09
2023-02-19T05:56:39.006Z,5.08
2023-02-19T05:59:26.822Z,5.11
2023-02-19T06:01:54.939Z,5.12
2023-02-19T06:04:23.041Z,5.14
2023-02-19T06:06:50.691Z,5.16
2023-02-19T06:09:18.764Z,5.16
2023-02-19T06:11:46.220Z,5.16
2023-02-19T06:14:15.007Z,5.13
2023-02-19T06:16:42.864Z,5.13
2023-02-19T06:19:10.701Z,5.12
2023-02-19T06:21:38.176Z,5.14
2023-02-19T06:24:09.758Z,5.14
2023-02-19T06:26:37.874Z,5.12
2023-02-19T06:29:05.189Z,5.12
2023-02-19T06:31:32.876Z,5.13
2023-02-19T06:34:00.284Z,5.15
2023-02-19T06:36:27.488Z,5.17
2023-02-19T06:38:54.718Z,5.17
2023-02-19T06:41:22.666Z,5.19
2023-02-19T06:43:51.381Z,5.21
2023-02-19T06:46:20.407Z,5.24
2023-02-19T06:48:49.113Z,5.24
2023-02-19T06:51:24.759Z,5.25
2023-02-19T06:53:52.066Z,5.27
2023-02-19T06:56:32.009Z,5.27
2023-02-19T06:59:02.623Z,5.27
2023-02-19T07:01:31.909Z,5.27
2023-02-19T07:04:00.785Z,5.31
2023-02-19T07:06:29.458Z,5.34
2023-02-19T07:08:58.761Z,5.34
2023-02-19T07:11:27.554Z,5.40
2023-02-19T07:13:59.643Z,5.44
2023-02-19T07:16:29.141Z,5.46
2023-02-19T07:19:00.334Z,5.47
2023-02-19T07:21:30.836Z,5.49
2023-02-19T07:24:00.564Z,5.51
2023-02-19T07:26:27.962Z,5.56
2023-02-19T07:28:55.288Z,5.59
2023-02-19T07:31:24.701Z,5.63
2023-02-19T07:33:53.352Z,5.67
2023-02-19T07:36:22.793Z,5.71
2023-02-19T07:39:00.535Z,5.74
2023-02-19T07:41:28.387Z,5.75
2023-02-19T07:43:55.713Z,5.75
2023-02-19T07:46:25.212Z,5.74
2023-02-19T07:48:53.280Z,5.73
2023-02-19T07:51:22.589Z,5.73
2023-02-19T07:53:53.575Z,5.75
2023-02-19T07:56:21.488Z,5.74
2023-02-19T07:58:49.195Z,5.75
2023-02-19T08:01:42.651Z,5.78
2023-02-19T08:04:12.176Z,5.80
2023-02-19T08:06:40.289Z,5.84
2023-02-19T08:09:09.098Z,5.89
2023-02-19T08:11:56.069Z,5.95
2023-02-19T08:14:28.251Z,5.99
2023-02-19T08:16:58.251Z,6.02
2023-02-19T08:19:27.724Z,6.05
2023-02-19T08:22:04.081Z,6.05
2023-02-19T08:24:37.952Z,6.03
2023-02-19T08:27:10.459Z,6.01
2023-02-19T08:29:40.438Z,5.97
2023-02-19T08:32:09.961Z,5.94
2023-02-19T08:34:43.281Z,5.88
2023-02-19T08:37:12.420Z,5.84
2023-02-19T08:39:40.928Z,5.80
2023-02-19T08:42:08.425Z,5.72
2023-02-19T08:44:36.070Z,5.64
2023-02-19T08:47:06.031Z,5.62
2023-02-19T08:49:35.521Z,5.60
2023-02-19T08:52:07.150Z,5.59
2023-02-19T08:54:37.261Z,5.58
2023-02-19T08:57:06.754Z,5.58
2023-02-19T08:59:35.437Z,5.59
2023-02-19T09:02:03.716Z,5.60
2023-02-19T09:04:32.038Z,5.60
2023-02-19T09:07:00.217Z,5.60
2023-02-19T09:09:30.585Z,5.63
2023-02-19T09:12:01.311Z,5.64
2023-02-19T09:14:33.953Z,5.63
2023-02-19T09:17:04.113Z,5.63
2023-02-19T09:19:33.662Z,5.59
2023-02-19T09:22:03.314Z,5.55
2023-02-19T09:24:33.266Z,5.55
2023-02-19T09:27:07.805Z,5.59
2023-02-19T09:29:36.839Z,5.65
2023-02-19T09:32:05.942Z,5.66
2023-02-19T09:34:35.073Z,5.70
2023-02-19T09:37:04.312Z,5.65
2023-02-19T09:39:34.094Z,5.48
2023-02-19T09:42:22.103Z,5.31
2023-02-19T09:44:56.214Z,5.24
2023-02-19T09:47:29.329Z,5.19
2023-02-19T09:50:05.362Z,5.19
2023-02-19T09:52:57.456Z,5.16
2023-02-19T09:55:41.548Z,5.06
2023-02-19T09:58:35.945Z,5.00
2023-02-19T10:01:10.192Z,4.89
2023-02-19T10:03:50.908Z,4.77
2023-02-19T10:06:28.397Z,4.67
2023-02-19T10:09:19.215Z,4.65
2023-02-19T10:11:52.503Z,4.62
2023-02-19T10:14:45.474Z,4.56
2023-02-19T10:17:25.578Z,4.44
2023-02-19T10:19:56.007Z,4.33
2023-02-19T10:22:26.148Z,4.26
2023-02-19T10:24:57.816Z,4.21
2023-02-19T10:27:32.933Z,4.12
2023-02-19T10:30:04.437Z,4.04
2023-02-19T10:32:37.493Z,3.99
2023-02-19T10:35:14.299Z,3.91
2023-02-19T10:37:50.225Z,3.83
2023-02-19T10:40:23.360Z,3.77
2023-02-19T10:43:06.231Z,3.76
2023-02-19T10:45:51.143Z,3.74
2023-02-19T10:48:34.049Z,3.68
2023-02-19T10:51:08.282Z,3.64
2023-02-19T10:53:52.694Z,3.65
2023-02-19T10:56:32.706Z,3.70
2023-02-19T10:59:29.528Z,3.70
2023-02-19T11:02:17.542Z,3.69
2023-02-19T11:05:06.517Z,3.72
2023-02-19T11:07:37.114Z,3.72
2023-02-19T11:10:12.564Z,3.70
2023-02-19T11:12:43.597Z,3.66
2023-02-19T11:15:42.240Z,3.66
2023-02-19T11:18:14.651Z,3.62
2023-02-19T11:21:04.612Z,3.59
2023-02-19T11:23:49.752Z,3.60
2023-02-19T11:26:27.901Z,3.54
2023-02-19T11:29:06.230Z,3.56
2023-02-19T11:31:40.750Z,3.61
2023-02-19T11:34:30.879Z,3.65
2023-02-19T11:37:16.023Z,3.67
2023-02-19T11:39:49.338Z,3.71
2023-02-19T11:42:34.089Z,3.75
2023-02-19T11:45:40.797Z,3.83
2023-02-19T11:48:53.075Z,3.77
2023-02-19T11:51:49.331Z,3.67
2023-02-19T11:54:53.739Z,3.59
2023-02-19T11:57:45.699Z,3.57
2023-02-19T12:00:29.320Z,3.55
2023-02-19T12:03:26.331Z,3.51
2023-02-19T12:06:22.357Z,3.48
2023-02-19T12:09:28.194Z,3.40
2023-02-19T12:12:23.388Z,3.36
2023-02-19T12:15:25.071Z,3.31
2023-02-19T12:18:01.824Z,3.27
2023-02-19T12:20:51.014Z,3.28
2023-02-19T12:24:14.560Z,3.26
2023-02-19T12:27:05.449Z,3.19
2023-02-19T12:30:15.091Z,3.17
2023-02-19T12:33:09.277Z,3.17
2023-02-19T12:36:07.280Z,3.14
2023-02-19T12:38:52.173Z,3.12
2023-02-19T12:41:58.758Z,3.14
2023-02-19T12:44:54.602Z,3.19
2023-02-19T12:47:31.809Z,3.19
2023-02-19T12:50:21.898Z,3.19
2023-02-19T12:52:57.571Z,3.18
2023-02-19T12:58:31.006Z,3.22
2023-02-19T13:01:02.615Z,3.25
2023-02-19T13:03:41.022Z,3.27
2023-02-19T13:06:25.393Z,3.25
2023-02-19T13:09:09.068Z,3.26
2023-02-19T13:11:48.804Z,3.24
2023-02-19T13:14:26.646Z,3.21
2023-02-19T13:17:22.278Z,3.22
2023-02-19T13:19:55.811Z,3.21
2023-02-19T13:22:56.019Z,3.17
2023-02-19T13:25:34.486Z,3.17
2023-02-19T13:28:22.423Z,3.17
2023-02-19T13:31:13.621Z,3.18
2023-02-19T13:34:16.335Z,3.22
2023-02-19T13:36:49.031Z,3.32
2023-02-19T13:39:25.162Z,3.41
2023-02-19T13:42:06.430Z,3.46
2023-02-19T13:44:39.114Z,3.50
2023-02-19T13:47:36.771Z,3.51
2023-02-19T13:50:21.039Z,3.50
2023-02-19T13:52:55.497Z,3.47
2023-02-19T13:55:50.237Z,3.44
2023-02-19T13:58:41.777Z,3.38
2023-02-19T14:01:18.349Z,3.28
2023-02-19T14:04:10.734Z,3.14
2023-02-19T14:07:06.843Z,3.05
2023-02-19T14:09:43.986Z,2.98
2023-02-19T14:12:18.411Z,2.92
2023-02-19T14:14:55.423Z,2.87
2023-02-19T14:17:45.725Z,2.84
2023-02-19T14:20:39.596Z,2.83
2023-02-19T14:23:21.868Z,2.80
2023-02-19T14:26:00.855Z,2.80
2023-02-19T14:28:47.812Z,2.81
2023-02-19T14:31:35.476Z,2.83
2023-02-19T14:34:09.040Z,2.78
2023-02-19T14:36:51.952Z,2.74
2023-02-19T14:39:40.101Z,2.68
2023-02-19T14:42:26.348Z,2.60
2023-02-19T14:45:01.665Z,2.54
2023-02-19T14:47:37.301Z,2.53
2023-02-19T14:50:17.482Z,2.54
2023-02-19T14:52:51.618Z,2.52
2023-02-19T14:55:39.720Z,2.46
2023-02-19T14:58:26.006Z,2.46
2023-02-19T15:01:02.086Z,2.45
2023-02-19T15:03:33.832Z,2.44
2023-02-19T15:06:19.567Z,2.45
2023-02-19T15:08:52.277Z,2.43
2023-02-19T15:11:24.823Z,2.43
2023-02-19T15:14:04.939Z,2.43
2023-02-19T15:16:40.101Z,2.41
2023-02-19T15:19:12.425Z,2.40
2023-02-19T15:21:53.811Z,2.36
2023-02-19T15:24:24.033Z,2.30
2023-02-19T15:26:57.769Z,2.26
2023-02-19T15:29:33.308Z,2.24
2023-02-19T15:32:04.256Z,2.20
2023-02-19T15:34:37.294Z,2.20
2023-02-19T15:37:10.495Z,2.19
2023-02-19T15:39:48.666Z,2.18
2023-02-19T15:42:28.950Z,2.18
2023-02-19T15:45:05.899Z,2.14
2023-02-19T15:47:46.015Z,2.10
2023-02-19T15:50:21.648Z,2.07
2023-02-19T15:53:07.539Z,2.07
2023-02-19T15:55:59.347Z,2.08
2023-02-19T15:58:44.270Z,2.04
2023-02-19T16:01:28.581Z,2.02
2023-02-19T16:03:59.792Z,2.01
2023-02-19T16:06:32.508Z,1.97
2023-02-19T16:09:05.729Z,1.97
2023-02-19T16:11:41.174Z,1.97
2023-02-19T16:14:31.968Z,1.93
2023-02-19T16:17:26.129Z,1.92
2023-02-19T16:19:57.138Z,1.91
2023-02-19T16:22:31.938Z,1.89
2023-02-19T16:25:04.541Z,1.88
2023-02-19T16:27:38.377Z,1.88
2023-02-19T16:30:18.552Z,1.87
2023-02-19T16:32:48.646Z,1.85
2023-02-19T16:35:43.154Z,1.80
2023-02-19T16:38:21.353Z,1.78
2023-02-19T16:40:53.341Z,1.77
2023-02-19T16:43:45.539Z,1.77
2023-02-19T16:46:15.613Z,1.75
2023-02-19T16:48:45.016Z,1.72
2023-02-19T16:51:37.086Z,1.69
2023-02-19T16:54:07.785Z,1.67
2023-02-19T16:56:37.401Z,1.68
2023-02-19T16:59:08.852Z,1.66
2023-02-19T17:01:43.174Z,1.61
2023-02-19T17:04:18.618Z,1.59
2023-02-19T17:06:52.043Z,1.57
2023-02-19T17:09:21.909Z,1.57
2023-02-19T17:11:51.704Z,1.56
2023-02-19T17:14:25.912Z,1.55
2023-02-19T17:16:57.177Z,1.55
2023-02-19T17:19:27.094Z,1.54
2023-02-19T17:21:57.979Z,1.54
2023-02-19T17:24:29.667Z,1.52
2023-02-19T17:26:58.616Z,1.51
2023-02-19T17:29:35.799Z,1.50
2023-02-19T17:32:06.531Z,1.49
2023-02-19T17:34:35.612Z,1.46
2023-02-19T17:37:07.659Z,1.41
2023-02-19T17:39:43.549Z,1.36
2023-02-19T17:42:13.649Z,1.35
2023-02-19T17:44:50.877Z,1.34
2023-02-19T17:47:23.234Z,1.33
2023-02-19T17:49:52.874Z,1.25
2023-02-19T17:52:23.593Z,1.17
2023-02-19T17:54:57.501Z,1.13
2023-02-19T17:57:34.781Z,1.12
2023-02-19T18:00:07.365Z,1.13
2023-02-19T18:02:40.663Z,1.12
2023-02-19T18:15:50.592Z,0.94
2023-02-19T18:18:20.118Z,0.92
2023-02-19T18:20:50.494Z,0.89
2023-02-19T18:23:34.722Z,0.86
2023-02-19T18:26:08.159Z,0.83
2023-02-19T18:28:38.781Z,0.80
2023-02-19T18:31:11.893Z,0.78
2023-02-19T18:33:44.571Z,0.79
2023-02-19T18:36:22.333Z,0.75
2023-02-19T18:38:52.690Z,0.71
2023-02-19T18:41:32.775Z,0.68
2023-02-19T18:44:04.883Z,0.65
2023-02-19T18:46:39.406Z,0.62
2023-02-19T18:49:11.049Z,0.59
2023-02-19T18:51:41.390Z,0.54
2023-02-19T18:54:21.835Z,0.53
2023-02-19T18:56:51.527Z,0.54
2023-02-19T19:21:19.026Z,0.39
2023-02-19T19:23:49.541Z,0.34
2023-02-19T19:26:20.428Z,0.31
2023-02-19T19:28:50.447Z,0.30
2023-02-19T19:31:30.022Z,0.28
2023-02-19T19:34:00.506Z,0.28
2023-02-19T19:36:34.986Z,0.25
2023-02-19T19:39:05.214Z,0.21
2023-02-19T19:41:35.851Z,0.22
2023-02-19T19:44:15.631Z,0.22
2023-02-19T19:46:50.224Z,0.20
2023-02-19T19:49:24.777Z,0.19
2023-02-19T19:51:58.674Z,0.15
2023-02-19T19:54:35.287Z,0.12
2023-02-19T19:57:08.225Z,0.07
2023-02-19T19:59:42.886Z,0.00
2023-02-19T20:02:15.141Z,-0.02
2023-02-19T20:04:45.263Z,-0.01
2023-02-19T20:07:16.070Z,0.01
2023-02-19T20:09:59.107Z,-0.02
2023-02-19T20:12:30.133Z,-0.05
2023-02-19T20:15:04.225Z,-0.06
2023-02-19T20:17:38.438Z,-0.05
2023-02-19T20:20:10.393Z,-0.10
2023-02-19T20:22:41.812Z,-0.11
2023-02-19T20:25:14.702Z,-0.11
2023-02-19T20:27:45.112Z,-0.13
2023-02-19T20:30:17.289Z,-0.13
2023-02-19T20:32:47.739Z,-0.12
2023-02-19T20:35:19.260Z,-0.12
2023-02-19T20:37:52.530Z,-0.15
2023-02-19T20:40:22.090Z,-0.18
2023-02-19T20:42:54.695Z,-0.18
2023-02-19T20:45:25.336Z,-0.19
2023-02-19T20:47:57.344Z,-0.19
2023-02-19T20:50:27.349Z,-0.20
2023-02-19T20:52:57.628Z,-0.21
2023-02-19T20:55:27.374Z,-0.24
2023-02-19T20:57:57.087Z,-0.24
2023-02-19T21:00:26.941Z,-0.24
2023-02-19T21:02:57.476Z,-0.27
2023-02-19T21:05:27.941Z,-0.27
2023-02-19T21:07:57.373Z,-0.27
2023-02-19T21:10:26.746Z,-0.27
2023-02-19T21:12:55.264Z,-0.31
2023-02-19T21:15:23.984Z,-0.32
2023-02-19T21:17:51.099Z,-0.32
2023-02-19T21:20:18.320Z,-0.37
2023-02-19T21:22:45.855Z,-0.38
2023-02-19T21:25:13.692Z,-0.37
2023-02-19T21:27:41.513Z,-0.36
2023-02-19T21:30:09.930Z,-0.36
2023-02-19T21:32:37.113Z,-0.36
2023-02-19T21:35:04.668Z,-0.37
2023-02-19T21:37:31.941Z,-0.40
2023-02-19T21:40:00.744Z,-0.38
2023-02-19T21:42:28.031Z,-0.36
2023-02-19T21:44:59.031Z,-0.36
2023-02-19T21:47:28.065Z,-0.37
2023-02-19T21:49:55.184Z,-0.41
2023-02-19T21:52:23.927Z,-0.43
2023-02-19T21:54:51.000Z,-0.43
2023-02-19T21:57:18.093Z,-0.41
2023-02-19T21:59:45.306Z,-0.39
2023-02-19T22:02:13.194Z,-0.37
2023-02-19T22:04:40.119Z,-0.38
2023-02-19T22:07:07.533Z,-0.40
2023-02-19T22:09:34.865Z,-0.43
2023-02-19T22:12:02.070Z,-0.42
2023-02-19T22:14:29.768Z,-0.46
2023-02-19T22:16:56.795Z,-0.48
2023-02-19T22:19:23.890Z,-0.46
2023-02-19T22:21:51.216Z,-0.47
2023-02-19T22:24:21.288Z,-0.47
2023-02-19T22:26:50.930Z,-0.48
2023-02-19T22:29:19.273Z,-0.49
2023-02-19T22:31:50.800Z,-0.48
2023-02-19T22:34:18.134Z,-0.47
2023-02-19T22:36:46.527Z,-0.47
2023-02-19T22:39:20.188Z,-0.45
2023-02-19T22:41:47.996Z,-0.45
2023-02-19T22:44:15.852Z,-0.46
2023-02-19T22:46:51.555Z,-0.48
2023-02-19T22:49:19.822Z,-0.44
2023-02-19T22:51:55.939Z,-0.43
2023-02-19T22:54:30.121Z,-0.41
2023-02-19T22:56:58.224Z,-0.41
2023-02-19T22:59:25.730Z,-0.43
2023-02-19T23:01:53.237Z,-0.45
2023-02-19T23:04:22.280Z,-0.46
2023-02-19T23:06:52.595Z,-0.45
2023-02-19T23:09:27.506Z,-0.43
2023-02-19T23:12:05.675Z,-0.40
2023-02-19T23:14:33.373Z,-0.38
2023-02-19T23:17:00.611Z,-0.36
2023-02-19T23:19:28.775Z,-0.35
2023-02-19T23:21:57.014Z,-0.35
2023-02-19T23:24:25.018Z,-0.34
2023-02-19T23:26:56.204Z,-0.33
2023-02-19T23:29:27.455Z,-0.32
2023-02-19T23:31:58.819Z,-0.30
2023-02-19T23:34:26.166Z,-0.30
2023-02-19T23:36:55.701Z,-0.33
2023-02-19T23:39:23.121Z,-0.34
2023-02-19T23:41:55.441Z,-0.36
2023-02-19T23:44:26.348Z,-0.37
2023-02-19T23:46:53.641Z,-0.37
2023-02-19T23:49:21.296Z,-0.39
2023-02-19T23:51:50.191Z,-0.39
2023-02-19T23:54:17.536Z,-0.39
2023-02-19T23:56:44.573Z,-0.38
2023-02-19T23:59:12.388Z,-0.38
